GAP2359 RPVM-RPVE
Flight info
| Callsign | GAP2359 |
|---|---|
| Flight time | 0h 35m |
| Altitude | 22000 |
| Route | PARAO4P PARAO W6A ROX TR15 KLO KLO7A |
| Aircraft | A20N/M-SDE2E3FGHIRWXY/LB1 |
Departure
| Time | 2026-04-22 16:19 |
|---|---|
| Airport | Mactan Cebu International Airport (RPVM) |
Arrival
| Time | 2026-04-22 16:55 |
|---|---|
| Airport | Godofredo P. Ramos Airport (RPVE) |
| Time | Latitude | Longitude | Altitude | Speed | Heading |
|---|---|---|---|---|---|
| 2026-04-22 15:55 | 10.31173 | 123.97702 | 39 ft | 0 kts | 227° |
| 2026-04-22 16:09 | 10.31163 | 123.97691 | 38 ft | 3 kts | 227° |
| 2026-04-22 16:09 | 10.31150 | 123.97681 | 37 ft | 4 kts | 201° |
| 2026-04-22 16:09 | 10.31127 | 123.97687 | 38 ft | 4 kts | 150° |
| 2026-04-22 16:10 | 10.31092 | 123.97719 | 38 ft | 10 kts | 134° |
| 2026-04-22 16:10 | 10.31036 | 123.97780 | 38 ft | 8 kts | 134° |
| 2026-04-22 16:10 | 10.30993 | 123.97777 | 38 ft | 6 kts | 220° |
| 2026-04-22 16:10 | 10.30960 | 123.97742 | 38 ft | 10 kts | 225° |
| 2026-04-22 16:11 | 10.30876 | 123.97659 | 36 ft | 23 kts | 224° |
| 2026-04-22 16:11 | 10.30763 | 123.97546 | 37 ft | 22 kts | 225° |
| 2026-04-22 16:11 | 10.30658 | 123.97440 | 37 ft | 21 kts | 225° |
| 2026-04-22 16:11 | 10.30554 | 123.97337 | 36 ft | 21 kts | 225° |
| 2026-04-22 16:12 | 10.30454 | 123.97234 | 36 ft | 20 kts | 225° |
| 2026-04-22 16:12 | 10.30355 | 123.97134 | 35 ft | 20 kts | 225° |
| 2026-04-22 16:12 | 10.30257 | 123.97035 | 35 ft | 20 kts | 225° |
| 2026-04-22 16:12 | 10.30160 | 123.96937 | 33 ft | 19 kts | 225° |
| 2026-04-22 16:13 | 10.30064 | 123.96842 | 34 ft | 19 kts | 224° |
| 2026-04-22 16:13 | 10.29971 | 123.96748 | 34 ft | 19 kts | 225° |
| 2026-04-22 16:13 | 10.29885 | 123.96704 | 33 ft | 10 kts | 163° |
| 2026-04-22 16:13 | 10.29840 | 123.96748 | 33 ft | 9 kts | 134° |
| 2026-04-22 16:14 | 10.29798 | 123.96792 | 33 ft | 8 kts | 135° |
| 2026-04-22 16:14 | 10.29758 | 123.96832 | 33 ft | 8 kts | 134° |
| 2026-04-22 16:14 | 10.29720 | 123.96873 | 33 ft | 8 kts | 127° |
| 2026-04-22 16:14 | 10.29723 | 123.96918 | 32 ft | 6 kts | 44° |
| 2026-04-22 16:15 | 10.29748 | 123.96943 | 32 ft | 0 kts | 43° |
| 2026-04-22 16:18 | 10.29833 | 123.97022 | 32 ft | 45 kts | 39° |
| 2026-04-22 16:19 | 10.31563 | 123.98742 | 210 ft | 162 kts | 43° |
| 2026-04-22 16:19 | 10.32365 | 123.99527 | 664 ft | 167 kts | 43° |
| 2026-04-22 16:20 | 10.33188 | 124.00361 | 1171 ft | 163 kts | 45° |
| 2026-04-22 16:20 | 10.33976 | 124.01161 | 1769 ft | 161 kts | 46° |
| 2026-04-22 16:20 | 10.34841 | 124.02037 | 2044 ft | 191 kts | 46° |
| 2026-04-22 16:20 | 10.35866 | 124.03072 | 2228 ft | 225 kts | 46° |
| 2026-04-22 16:21 | 10.37032 | 124.04246 | 2577 ft | 249 kts | 46° |
| 2026-04-22 16:21 | 10.38424 | 124.05326 | 3235 ft | 258 kts | 23° |
| 2026-04-22 16:21 | 10.40227 | 124.05492 | 3962 ft | 268 kts | 348° |
| 2026-04-22 16:21 | 10.41873 | 124.04583 | 4667 ft | 277 kts | 318° |
| 2026-04-22 16:22 | 10.44465 | 124.01625 | 6177 ft | 282 kts | 311° |
| 2026-04-22 16:22 | 10.45772 | 124.00126 | 6903 ft | 285 kts | 313° |
| 2026-04-22 16:22 | 10.47130 | 123.98638 | 7623 ft | 288 kts | 314° |
| 2026-04-22 16:23 | 10.49932 | 123.95700 | 9107 ft | 292 kts | 314° |
| 2026-04-22 16:23 | 10.51372 | 123.94223 | 9872 ft | 294 kts | 314° |
| 2026-04-22 16:23 | 10.52817 | 123.92750 | 10336 ft | 306 kts | 314° |
| 2026-04-22 16:24 | 10.54364 | 123.91174 | 10582 ft | 324 kts | 314° |
| 2026-04-22 16:24 | 10.57704 | 123.87764 | 11084 ft | 354 kts | 314° |
| 2026-04-22 16:24 | 10.59391 | 123.85902 | 11529 ft | 360 kts | 309° |
| 2026-04-22 16:25 | 10.60948 | 123.83901 | 12057 ft | 363 kts | 307° |
| 2026-04-22 16:25 | 10.63984 | 123.79743 | 13102 ft | 369 kts | 305° |
| 2026-04-22 16:25 | 10.65504 | 123.77632 | 13641 ft | 372 kts | 305° |
| 2026-04-22 16:26 | 10.67035 | 123.75504 | 14120 ft | 375 kts | 305° |
| 2026-04-22 16:26 | 10.68586 | 123.73347 | 14579 ft | 378 kts | 305° |
| 2026-04-22 16:26 | 10.70147 | 123.71178 | 15034 ft | 381 kts | 305° |
| 2026-04-22 16:26 | 10.71720 | 123.68992 | 15494 ft | 385 kts | 305° |
| 2026-04-22 16:27 | 10.73308 | 123.66786 | 15959 ft | 388 kts | 305° |
| 2026-04-22 16:27 | 10.74907 | 123.64564 | 16408 ft | 391 kts | 305° |
| 2026-04-22 16:27 | 10.76499 | 123.62351 | 16843 ft | 394 kts | 305° |
| 2026-04-22 16:27 | 10.78143 | 123.60064 | 17274 ft | 397 kts | 305° |
| 2026-04-22 16:28 | 10.79782 | 123.57784 | 17699 ft | 400 kts | 305° |
| 2026-04-22 16:28 | 10.81407 | 123.55523 | 18097 ft | 403 kts | 305° |
| 2026-04-22 16:28 | 10.83070 | 123.53209 | 18456 ft | 406 kts | 305° |
| 2026-04-22 16:28 | 10.84743 | 123.50879 | 18792 ft | 409 kts | 305° |
| 2026-04-22 16:29 | 10.86430 | 123.48531 | 19118 ft | 411 kts | 306° |
| 2026-04-22 16:29 | 10.88121 | 123.46176 | 19448 ft | 413 kts | 306° |
| 2026-04-22 16:29 | 10.89824 | 123.43802 | 19768 ft | 415 kts | 306° |
| 2026-04-22 16:29 | 10.91546 | 123.41434 | 20080 ft | 418 kts | 308° |
| 2026-04-22 16:30 | 10.92782 | 123.39923 | 20274 ft | 419 kts | 310° |
| 2026-04-22 16:30 | 10.95458 | 123.37014 | 20681 ft | 422 kts | 314° |
| 2026-04-22 16:30 | 10.97538 | 123.34936 | 20988 ft | 425 kts | 316° |
| 2026-04-22 16:30 | 10.99686 | 123.32865 | 21290 ft | 427 kts | 316° |
| 2026-04-22 16:31 | 11.01867 | 123.30799 | 21615 ft | 429 kts | 317° |
| 2026-04-22 16:31 | 11.04059 | 123.28728 | 21853 ft | 431 kts | 317° |
| 2026-04-22 16:31 | 11.06273 | 123.26632 | 21900 ft | 438 kts | 316° |
| 2026-04-22 16:31 | 11.08515 | 123.24499 | 21896 ft | 440 kts | 316° |
| 2026-04-22 16:32 | 11.10746 | 123.22365 | 21895 ft | 440 kts | 316° |
| 2026-04-22 16:32 | 11.12971 | 123.20231 | 21895 ft | 440 kts | 316° |
| 2026-04-22 16:32 | 11.15172 | 123.18114 | 21900 ft | 440 kts | 316° |
| 2026-04-22 16:32 | 11.17397 | 123.15972 | 21897 ft | 440 kts | 316° |
| 2026-04-22 16:33 | 11.19625 | 123.13826 | 21895 ft | 440 kts | 316° |
| 2026-04-22 16:33 | 11.21847 | 123.11685 | 21898 ft | 440 kts | 316° |
| 2026-04-22 16:33 | 11.24069 | 123.09544 | 21900 ft | 440 kts | 316° |
| 2026-04-22 16:33 | 11.26297 | 123.07397 | 21892 ft | 440 kts | 316° |
| 2026-04-22 16:34 | 11.28511 | 123.05264 | 21885 ft | 440 kts | 316° |
| 2026-04-22 16:34 | 11.30734 | 123.03121 | 21903 ft | 440 kts | 316° |
| 2026-04-22 16:34 | 11.32964 | 123.00971 | 21902 ft | 440 kts | 316° |
| 2026-04-22 16:34 | 11.35188 | 122.98827 | 21888 ft | 439 kts | 316° |
| 2026-04-22 16:35 | 11.37400 | 122.96693 | 21903 ft | 439 kts | 316° |
| 2026-04-22 16:35 | 11.39595 | 122.94576 | 21905 ft | 439 kts | 316° |
| 2026-04-22 16:35 | 11.41819 | 122.92429 | 21896 ft | 439 kts | 316° |
| 2026-04-22 16:35 | 11.44046 | 122.90281 | 21905 ft | 439 kts | 316° |
| 2026-04-22 16:36 | 11.46259 | 122.88145 | 21891 ft | 439 kts | 316° |
| 2026-04-22 16:36 | 11.48482 | 122.86000 | 21899 ft | 439 kts | 316° |
| 2026-04-22 16:36 | 11.50699 | 122.83859 | 21908 ft | 439 kts | 316° |
| 2026-04-22 16:36 | 11.52921 | 122.81714 | 21900 ft | 439 kts | 316° |
| 2026-04-22 16:37 | 11.55146 | 122.79565 | 21895 ft | 439 kts | 316° |
| 2026-04-22 16:37 | 11.57295 | 122.77419 | 21906 ft | 439 kts | 311° |
| 2026-04-22 16:37 | 11.59143 | 122.74941 | 21906 ft | 437 kts | 299° |
| 2026-04-22 16:37 | 11.60371 | 122.72129 | 21905 ft | 435 kts | 289° |
| 2026-04-22 16:38 | 11.61277 | 122.69185 | 21894 ft | 435 kts | 284° |
| 2026-04-22 16:38 | 11.62011 | 122.66194 | 21901 ft | 432 kts | 282° |
| 2026-04-22 16:38 | 11.62660 | 122.63206 | 21904 ft | 431 kts | 281° |
| 2026-04-22 16:38 | 11.63283 | 122.60219 | 21895 ft | 431 kts | 281° |
| 2026-04-22 16:39 | 11.63926 | 122.57228 | 21902 ft | 431 kts | 282° |
| 2026-04-22 16:39 | 11.64588 | 122.54251 | 21906 ft | 431 kts | 282° |
| 2026-04-22 16:39 | 11.65266 | 122.51265 | 21902 ft | 431 kts | 282° |
| 2026-04-22 16:39 | 11.65949 | 122.48291 | 21894 ft | 431 kts | 282° |
| 2026-04-22 16:40 | 11.66636 | 122.45316 | 21725 ft | 430 kts | 282° |
| 2026-04-22 16:40 | 11.67314 | 122.42392 | 21586 ft | 417 kts | 282° |
| 2026-04-22 16:40 | 11.69403 | 122.36960 | 20472 ft | 413 kts | 304° |
| 2026-04-22 16:41 | 11.71130 | 122.34673 | 19836 ft | 414 kts | 309° |
| 2026-04-22 16:41 | 11.72987 | 122.32416 | 19169 ft | 415 kts | 309° |
| 2026-04-22 16:41 | 11.74854 | 122.30159 | 18512 ft | 414 kts | 309° |
| 2026-04-22 16:41 | 11.76699 | 122.27897 | 17780 ft | 414 kts | 309° |
| 2026-04-22 16:42 | 11.79887 | 122.23924 | 16577 ft | 409 kts | 308° |
| 2026-04-22 16:42 | 11.81647 | 122.21706 | 15923 ft | 406 kts | 308° |
| 2026-04-22 16:42 | 11.83415 | 122.19469 | 15264 ft | 403 kts | 308° |
| 2026-04-22 16:43 | 11.85164 | 122.17250 | 14631 ft | 400 kts | 308° |
| 2026-04-22 16:43 | 11.86903 | 122.15041 | 13977 ft | 394 kts | 308° |
| 2026-04-22 16:43 | 11.88586 | 122.12897 | 13287 ft | 381 kts | 308° |
| 2026-04-22 16:43 | 11.90217 | 122.10813 | 12661 ft | 368 kts | 308° |
| 2026-04-22 16:44 | 11.91786 | 122.08802 | 12077 ft | 357 kts | 308° |
| 2026-04-22 16:44 | 11.93309 | 122.06847 | 11566 ft | 345 kts | 308° |
| 2026-04-22 16:44 | 11.94791 | 122.04942 | 11029 ft | 342 kts | 308° |
| 2026-04-22 16:44 | 11.96275 | 122.03038 | 10485 ft | 340 kts | 308° |
| 2026-04-22 16:45 | 11.97688 | 122.01224 | 10340 ft | 319 kts | 308° |
| 2026-04-22 16:45 | 11.99017 | 121.99513 | 10233 ft | 297 kts | 308° |
| 2026-04-22 16:45 | 12.00259 | 121.97907 | 10119 ft | 278 kts | 308° |
| 2026-04-22 16:45 | 12.01433 | 121.96385 | 9950 ft | 270 kts | 308° |
| 2026-04-22 16:46 | 12.02590 | 121.94798 | 9756 ft | 289 kts | 301° |
| 2026-04-22 16:46 | 12.03305 | 121.92855 | 9278 ft | 295 kts | 277° |
| 2026-04-22 16:46 | 12.03156 | 121.90788 | 8845 ft | 294 kts | 252° |
| 2026-04-22 16:46 | 12.02235 | 121.88934 | 8407 ft | 292 kts | 236° |
| 2026-04-22 16:47 | 12.01060 | 121.87244 | 7976 ft | 292 kts | 232° |
| 2026-04-22 16:47 | 11.99860 | 121.85597 | 7543 ft | 292 kts | 232° |
| 2026-04-22 16:47 | 11.98657 | 121.83930 | 7120 ft | 291 kts | 233° |
| 2026-04-22 16:47 | 11.97463 | 121.82249 | 6699 ft | 291 kts | 233° |
| 2026-04-22 16:48 | 11.96285 | 121.80569 | 6280 ft | 291 kts | 233° |
| 2026-04-22 16:48 | 11.95126 | 121.78903 | 6053 ft | 283 kts | 233° |
| 2026-04-22 16:48 | 11.94018 | 121.77298 | 5892 ft | 269 kts | 234° |
| 2026-04-22 16:48 | 11.92947 | 121.75788 | 5709 ft | 255 kts | 229° |
| 2026-04-22 16:49 | 11.91670 | 121.74622 | 5362 ft | 246 kts | 206° |
| 2026-04-22 16:49 | 11.90084 | 121.74125 | 5082 ft | 228 kts | 180° |
| 2026-04-22 16:49 | 11.88601 | 121.74303 | 4913 ft | 210 kts | 158° |
| 2026-04-22 16:49 | 11.87301 | 121.74862 | 4761 ft | 197 kts | 149° |
| 2026-04-22 16:50 | 11.86148 | 121.75574 | 4478 ft | 191 kts | 137° |
| 2026-04-22 16:50 | 11.85248 | 121.76536 | 4162 ft | 186 kts | 120° |
| 2026-04-22 16:50 | 11.84708 | 121.77707 | 3859 ft | 180 kts | 102° |
| 2026-04-22 16:50 | 11.84560 | 121.78956 | 3562 ft | 177 kts | 86° |
| 2026-04-22 16:51 | 11.84791 | 121.80181 | 3259 ft | 175 kts | 70° |
| 2026-04-22 16:51 | 11.85286 | 121.81318 | 2962 ft | 175 kts | 64° |
| 2026-04-22 16:51 | 11.85836 | 121.82402 | 2731 ft | 173 kts | 64° |
| 2026-04-22 16:51 | 11.86396 | 121.83486 | 2502 ft | 173 kts | 64° |
| 2026-04-22 16:52 | 11.86958 | 121.84581 | 2273 ft | 174 kts | 64° |
| 2026-04-22 16:52 | 11.87517 | 121.85677 | 2042 ft | 174 kts | 64° |
| 2026-04-22 16:52 | 11.88067 | 121.86764 | 1806 ft | 175 kts | 63° |
| 2026-04-22 16:52 | 11.88602 | 121.87825 | 1620 ft | 175 kts | 64° |
| 2026-04-22 16:53 | 11.89136 | 121.88886 | 1405 ft | 158 kts | 63° |
| 2026-04-22 16:53 | 11.89544 | 121.89688 | 1253 ft | 144 kts | 63° |
| 2026-04-22 16:53 | 11.89988 | 121.90567 | 1048 ft | 138 kts | 62° |
| 2026-04-22 16:53 | 11.90425 | 121.91428 | 959 ft | 135 kts | 63° |
| 2026-04-22 16:54 | 11.90866 | 121.92316 | 995 ft | 151 kts | 64° |
| 2026-04-22 16:54 | 11.91304 | 121.93262 | 741 ft | 141 kts | 66° |
| 2026-04-22 16:54 | 11.91734 | 121.94149 | 357 ft | 139 kts | 63° |
| 2026-04-22 16:54 | 11.92212 | 121.94984 | 117 ft | 141 kts | 58° |
| 2026-04-22 16:55 | 11.92684 | 121.95838 | 31 ft | 121 kts | 64° |
| 2026-04-22 16:55 | 11.92903 | 121.96311 | 33 ft | 33 kts | 63° |
| 2026-04-22 16:55 | 11.92936 | 121.96390 | 33 ft | 6 kts | 70° |
| 2026-04-22 16:55 | 11.92948 | 121.96433 | 34 ft | 7 kts | 88° |
| 2026-04-22 16:56 | 11.92932 | 121.96469 | 33 ft | 4 kts | 135° |
| 2026-04-22 16:56 | 11.92909 | 121.96484 | 36 ft | 6 kts | 150° |
| 2026-04-22 16:56 | 11.92857 | 121.96510 | 36 ft | 9 kts | 155° |
| 2026-04-22 16:56 | 11.92804 | 121.96527 | 36 ft | 7 kts | 182° |
| 2026-04-22 16:57 | 11.92770 | 121.96496 | 36 ft | 6 kts | 241° |
| 2026-04-22 16:57 | 11.92751 | 121.96456 | 36 ft | 6 kts | 244° |
| 2026-04-22 16:57 | 11.92731 | 121.96415 | 33 ft | 6 kts | 243° |
| 2026-04-22 16:57 | 11.92701 | 121.96398 | 35 ft | 5 kts | 164° |
| 2026-04-22 16:58 | 11.92683 | 121.96408 | 34 ft | 4 kts | 151° |
| 2026-04-22 16:58 | 11.92669 | 121.96415 | 33 ft | 0 kts | 152° |